Time;durP1;ratioP1;P1;durP2;ratioP2;P2;SDS_P1;SDS_P2;PMS_P1;PMS_P2;Temp;Humidity;BMP_temperature;BMP_pressure;BME280_temperature;BME280_humidity;BME280_pressure;Samples;Min_cycle;Max_cycle;Signal;HPM_P1;HPM_P2
2022/01/30 00:00:04;;;;;;;;;18.00;18.00;;;;;11.72;74.93;102896.31;5075838;27;45434;-82
2022/01/30 00:02:29;;;;;;;;;11.67;10.00;;;;;11.82;74.89;102911.72;5058613;28;47882;-80
2022/01/30 00:04:54;;;;;;;;;5.00;5.00;;;;;11.85;75.18;102918.88;5041918;28;45383;-81
2022/01/30 00:07:20;;;;;;;;;7.33;5.33;;;;;11.85;75.08;102921.53;5042010;28;45404;-82
2022/01/30 00:09:46;;;;;;;;;7.00;5.33;;;;;11.88;74.63;102924.28;5080163;27;45439;-83
2022/01/30 00:12:15;;;;;;;;;5.00;5.00;;;;;11.87;74.70;102911.91;5078790;27;45798;-82
2022/01/30 00:14:40;;;;;;;;;9.00;8.00;;;;;11.95;74.50;102924.59;5079217;27;46138;-81
2022/01/30 00:17:19;;;;;;;;;5.00;5.00;;;;;11.98;74.69;102919.41;5078992;27;50495;-80
2022/01/30 00:19:55;;;;;;;;;5.00;5.00;;;;;11.96;74.45;102913.16;5084707;27;45360;-81
2022/01/30 00:22:37;;;;;;;;;8.00;4.67;;;;;11.90;74.28;102915.56;5085726;27;46953;-82
2022/01/30 00:25:07;;;;;;;;;5.67;4.00;;;;;11.95;74.71;102923.69;5066584;27;46391;-80
2022/01/30 00:27:45;;;;;;;;;5.67;5.67;;;;;11.82;74.46;102893.19;5077906;27;45513;-80
2022/01/30 00:30:14;;;;;;;;;6.33;4.00;;;;;11.92;74.59;102911.22;5088412;27;45347;-80
2022/01/30 00:32:39;;;;;;;;;8.00;6.00;;;;;11.89;74.75;102919.06;5117246;27;46547;-80
2022/01/30 00:35:05;;;;;;;;;5.67;5.00;;;;;11.84;74.66;102911.78;5102499;27;53083;-81
2022/01/30 00:37:30;;;;;;;;;5.00;5.00;;;;;11.83;74.90;102907.34;5119693;27;45545;-80
2022/01/30 00:39:56;;;;;;;;;9.00;4.67;;;;;11.78;74.73;102915.06;5097486;27;50226;-81
2022/01/30 00:42:22;;;;;;;;;4.00;4.00;;;;;11.73;74.76;102906.94;5065381;27;48394;-80
2022/01/30 00:44:47;;;;;;;;;5.33;3.67;;;;;11.69;74.90;102909.41;5082237;27;46039;-80
2022/01/30 00:47:14;;;;;;;;;8.00;6.00;;;;;11.61;74.96;102893.25;5082406;27;54861;-81
2022/01/30 00:49:40;;;;;;;;;8.33;3.67;;;;;11.57;74.90;102893.94;5082363;27;45611;-81
2022/01/30 00:52:06;;;;;;;;;5.00;5.00;;;;;11.52;75.24;102896.41;5081861;27;45695;-80
2022/01/30 00:54:32;;;;;;;;;3.00;3.00;;;;;11.53;75.24;102898.22;5082173;27;45459;-80
2022/01/30 00:56:57;;;;;;;;;4.33;4.33;;;;;11.47;75.16;102895.31;5091628;27;45725;-82
2022/01/30 00:59:23;;;;;;;;;8.33;4.00;;;;;11.43;75.14;102906.59;5116641;27;45672;-80
2022/01/30 01:01:48;;;;;;;;;6.33;5.00;;;;;11.41;75.23;102900.38;5117560;27;58552;-81
2022/01/30 01:04:14;;;;;;;;;10.00;5.00;;;;;11.39;75.54;102887.91;5118671;27;45542;-83
2022/01/30 01:06:40;;;;;;;;;4.00;4.00;;;;;11.38;75.73;102889.66;5099964;27;57257;-82
2022/01/30 01:09:06;;;;;;;;;7.00;7.00;;;;;11.37;75.62;102882.56;5101969;27;45456;-83
2022/01/30 01:24:06;;;;;;;;;4.00;4.00;;;;;11.34;75.59;102858.63;5081146;27;45591;-81
2022/01/30 01:26:32;;;;;;;;;4.67;4.33;;;;;11.43;75.41;102879.25;5081256;27;45507;-81
2022/01/30 01:28:58;;;;;;;;;6.00;6.00;;;;;11.43;75.17;102864.28;5100437;27;45363;-81
2022/01/30 01:31:23;;;;;;;;;5.00;5.00;;;;;11.50;75.52;102866.34;5088876;27;62136;-83
2022/01/30 01:36:22;;;;;;;;;8.67;7.67;;;;;11.57;75.22;102866.59;5118542;27;45361;-81
2022/01/30 01:38:47;;;;;;;;;7.00;5.67;;;;;11.50;75.13;102847.84;5099170;27;45297;-81
2022/01/30 01:41:17;;;;;;;;;10.00;7.00;;;;;11.54;75.03;102851.47;5064197;27;47319;-82
2022/01/30 01:43:42;;;;;;;;;7.00;7.00;;;;;11.62;75.06;102867.69;5077148;27;45646;-81
2022/01/30 01:46:14;;;;;;;;;9.33;5.67;;;;;11.54;74.93;102855.03;5101669;27;47165;-80
2022/01/30 01:48:42;;;;;;;;;9.00;8.00;;;;;11.61;75.21;102871.13;5102907;27;45743;-83
2022/01/30 01:51:15;;;;;;;;;9.00;7.67;;;;;11.63;75.15;102874.78;5101569;27;48609;-81
2022/01/30 01:53:40;;;;;;;;;8.33;5.00;;;;;11.68;75.19;102876.75;5102388;27;45662;-80
2022/01/30 01:56:06;;;;;;;;;10.00;6.00;;;;;11.72;75.22;102878.69;5118302;27;54470;-83
2022/01/30 01:58:31;;;;;;;;;6.33;6.33;;;;;11.67;75.06;102867.03;5117648;27;49486;-83
2022/01/30 02:00:59;;;;;;;;;8.33;8.33;;;;;11.75;74.72;102873.50;5105314;27;58823;-83
2022/01/30 02:03:25;;;;;;;;;8.00;5.33;;;;;11.70;74.62;102861.81;5082707;27;46300;-81
2022/01/30 02:05:55;;;;;;;;;11.67;8.00;;;;;11.75;74.88;102872.59;5064128;27;45438;-82
2022/01/30 02:08:30;;;;;;;;;10.00;7.00;;;;;11.71;74.70;102875.97;5065284;27;45545;-82
2022/01/30 02:27:20;;;;;;;;;9.33;7.67;;;;;11.81;74.47;102859.59;5119373;27;45436;-82
2022/01/30 02:29:45;;;;;;;;;9.00;9.00;;;;;11.83;74.31;102857.97;5101565;27;45290;-80
2022/01/30 02:32:11;;;;;;;;;10.00;7.33;;;;;11.83;74.21;102867.66;5098245;27;47525;-81
2022/01/30 02:34:36;;;;;;;;;9.33;9.33;;;;;11.77;74.16;102853.31;5080516;27;45214;-82
2022/01/30 02:37:02;;;;;;;;;10.33;9.67;;;;;11.83;74.30;102860.59;5080463;27;45310;-81
2022/01/30 02:39:27;;;;;;;;;13.33;8.00;;;;;11.82;74.28;102864.06;5080633;27;45583;-81
2022/01/30 02:41:53;;;;;;;;;11.67;7.67;;;;;11.73;74.40;102850.47;5061813;27;47258;-81
2022/01/30 02:44:43;;;;;;;;;11.67;9.00;;;;;11.82;74.17;102865.81;5083087;27;45571;-81
2022/01/30 02:47:20;;;;;;;;;12.33;9.33;;;;;11.77;74.19;102857.66;5080905;27;45397;-82
2022/01/30 02:50:08;;;;;;;;;11.00;10.00;;;;;11.84;74.29;102858.84;5083455;27;45528;-81
2022/01/30 02:52:32;;;;;;;;;13.00;9.00;;;;;11.88;74.30;102866.97;5101358;27;45517;-81
2022/01/30 02:54:57;;;;;;;;;10.33;9.33;;;;;11.87;74.24;102866.91;5100512;27;46350;-82
2022/01/30 02:57:23;;;;;;;;;11.67;9.00;;;;;11.85;74.15;102872.13;5118181;27;45268;-82
2022/01/30 02:59:49;;;;;;;;;10.67;9.00;;;;;11.83;74.20;102867.66;5094635;27;46415;-81
2022/01/30 03:02:15;;;;;;;;;10.00;9.67;;;;;11.71;74.52;102841.56;5080142;27;45674;-82
2022/01/30 03:04:40;;;;;;;;;8.00;8.00;;;;;11.79;74.10;102863.94;5079804;27;45314;-80
2022/01/30 03:07:06;;;;;;;;;11.33;8.67;;;;;11.75;74.03;102857.63;5084691;27;45340;-81
2022/01/30 03:09:31;;;;;;;;;12.00;10.67;;;;;11.74;74.11;102861.09;5116788;27;45466;-80
2022/01/30 03:11:57;;;;;;;;;9.00;8.00;;;;;11.71;74.21;102850.38;5083307;27;62724;-81
2022/01/30 03:14:22;;;;;;;;;12.00;8.00;;;;;11.83;73.93;102859.72;5115469;27;53260;-83
2022/01/30 03:16:47;;;;;;;;;11.33;9.00;;;;;11.87;73.92;102877.47;5079263;27;56001;-81
2022/01/30 03:19:13;;;;;;;;;9.67;8.33;;;;;11.85;74.21;102871.25;5079787;27;45477;-81
2022/01/30 03:21:38;;;;;;;;;11.00;8.00;;;;;11.89;73.70;102882.00;5079426;27;47571;-82
2022/01/30 03:24:04;;;;;;;;;8.00;8.00;;;;;11.87;74.01;102864.25;5079839;27;45382;-81
2022/01/30 03:26:36;;;;;;;;;11.67;10.00;;;;;11.86;73.99;102863.34;5117134;27;45212;-80
2022/01/30 03:29:05;;;;;;;;;8.33;8.00;;;;;11.94;73.88;102872.50;5099091;27;45693;-81
2022/01/30 03:31:30;;;;;;;;;10.00;8.00;;;;;11.94;73.62;102882.19;5054991;28;47655;-82
2022/01/30 03:33:56;;;;;;;;;10.00;10.00;;;;;11.91;73.75;102875.03;5041515;27;58243;-82
2022/01/30 03:36:21;;;;;;;;;8.33;7.67;;;;;11.89;73.61;102867.88;5075406;27;53573;-81
2022/01/30 03:38:47;;;;;;;;;11.33;8.00;;;;;11.89;73.84;102874.06;5075566;28;53658;-81
2022/01/30 03:41:12;;;;;;;;;10.00;7.00;;;;;11.89;73.60;102876.72;5058811;28;52620;-82
2022/01/30 03:43:37;;;;;;;;;13.00;9.00;;;;;11.85;73.66;102860.66;5086051;27;53815;-83
2022/01/30 03:46:03;;;;;;;;;11.33;9.33;;;;;11.88;73.60;102861.69;5058680;28;48405;-82
2022/01/30 03:48:29;;;;;;;;;9.33;8.00;;;;;11.90;73.56;102878.50;5054729;27;45455;-82
2022/01/30 03:50:54;;;;;;;;;9.33;8.00;;;;;11.86;73.64;102858.06;5075621;27;47684;-83
2022/01/30 03:53:20;;;;;;;;;12.33;7.33;;;;;11.93;73.41;102865.41;5075261;27;45606;-83
2022/01/30 03:55:45;;;;;;;;;11.00;8.00;;;;;11.92;73.32;102863.56;5084244;27;54474;-81
2022/01/30 03:58:10;;;;;;;;;15.00;9.33;;;;;11.83;73.31;102850.03;5096141;27;46267;-81
2022/01/30 04:00:36;;;;;;;;;14.33;9.33;;;;;11.93;73.15;102869.78;5095825;27;48160;-81
2022/01/30 04:03:01;;;;;;;;;16.33;15.00;;;;;11.83;73.17;102844.72;5095959;27;45430;-82
2022/01/30 04:05:27;;;;;;;;;19.33;16.00;;;;;11.87;72.86;102857.22;5096411;27;45353;-82
2022/01/30 04:07:52;;;;;;;;;22.00;16.00;;;;;11.86;72.93;102876.59;5079218;27;45387;-81
2022/01/30 04:10:18;;;;;;;;;19.67;15.33;;;;;11.87;73.11;102877.47;5090201;27;45872;-81
2022/01/30 04:12:43;;;;;;;;;17.00;16.67;;;;;11.86;73.09;102876.59;5075492;28;45401;-80
2022/01/30 04:15:09;;;;;;;;;18.00;13.00;;;;;11.87;72.92;102883.69;5058646;28;45488;-82
2022/01/30 04:17:35;;;;;;;;;14.00;12.67;;;;;11.82;72.91;102874.66;5058667;28;45516;-81
2022/01/30 04:20:00;;;;;;;;;14.00;12.00;;;;;11.84;72.72;102880.94;5075383;28;46480;-82
2022/01/30 04:22:26;;;;;;;;;18.00;14.33;;;;;11.74;72.78;102865.50;5075486;27;45472;-82
2022/01/30 04:24:52;;;;;;;;;10.33;9.00;;;;;11.80;72.65;102887.81;5093560;27;45393;-82
2022/01/30 04:27:17;;;;;;;;;10.00;5.00;;;;;11.72;72.21;102880.44;5077486;27;54352;-83
2022/01/30 04:29:43;;;;;;;;;4.67;4.00;;;;;11.70;71.86;102884.75;5058600;28;47357;-83
2022/01/30 04:32:12;;;;;;;;;4.67;4.67;;;;;11.67;71.70;102876.69;5071926;27;45645;-82
2022/01/30 04:34:38;;;;;;;;;4.00;3.00;;;;;11.72;71.63;102888.38;5080184;27;45489;-81
2022/01/30 04:37:04;;;;;;;;;8.00;4.00;;;;;11.70;71.22;102893.59;5066098;27;45399;-81
2022/01/30 05:01:19;;;;;;;;;4.00;1.00;;;;;11.65;68.29;102924.25;5115999;27;45648;-83
2022/01/30 05:06:17;;;;;;;;;8.00;2.33;;;;;11.60;67.95;102915.22;5133552;27;45468;-80
2022/01/30 05:08:42;;;;;;;;;7.00;2.67;;;;;11.62;68.07;102920.59;5082487;27;45484;-82
2022/01/30 05:11:09;;;;;;;;;4.00;1.00;;;;;11.61;68.15;102921.41;5077878;27;48467;-81
2022/01/30 05:13:38;;;;;;;;;4.67;1.00;;;;;11.61;67.95;102924.06;5065252;27;46317;-81
2022/01/30 05:16:04;;;;;;;;;10.67;3.00;;;;;11.49;67.91;102905.94;5065698;27;45373;-81
2022/01/30 05:18:30;;;;;;;;;5.00;3.00;;;;;11.53;67.70;102923.75;5098823;27;45569;-81
2022/01/30 05:20:56;;;;;;;;;3.33;1.00;;;;;11.53;67.57;102929.06;5069109;27;47593;-80
2022/01/30 05:23:21;;;;;;;;;4.67;1.00;;;;;11.48;67.44;102920.94;5101855;27;45447;-80
2022/01/30 05:25:48;;;;;;;;;3.00;2.00;;;;;11.47;67.19;102912.94;5101817;27;45499;-81
2022/01/30 05:28:17;;;;;;;;;10.00;3.33;;;;;11.43;67.15;102911.00;5102010;27;45547;-80
2022/01/30 05:30:43;;;;;;;;;4.33;1.67;;;;;11.48;66.89;102928.88;5116764;27;46569;-81
2022/01/30 05:33:09;;;;;;;;;6.00;2.00;;;;;11.49;67.13;102938.59;5084827;27;45874;-81
2022/01/30 05:35:34;;;;;;;;;2.67;1.00;;;;;11.50;66.84;102936.84;5076518;27;45342;-82
2022/01/30 05:38:00;;;;;;;;;1.33;1.33;;;;;11.50;66.64;102940.44;5088128;27;45492;-81
2022/01/30 05:40:25;;;;;;;;;5.00;1.00;;;;;11.50;66.55;102939.50;5105126;27;45521;-83
2022/01/30 05:42:51;;;;;;;;;1.67;1.67;;;;;11.49;66.61;102938.59;5104293;27;45347;-80
2022/01/30 05:45:34;;;;;;;;;11.00;2.00;;;;;11.51;66.11;102944.88;5112215;27;45312;-83
2022/01/30 05:48:05;;;;;;;;;4.00;1.00;;;;;11.47;66.04;102937.66;5097488;27;45447;-82
2022/01/30 05:50:31;;;;;;;;;2.67;1.00;;;;;11.40;66.48;102932.03;5106390;27;45736;-81
2022/01/30 05:52:56;;;;;;;;;8.00;1.00;;;;;11.45;65.99;102939.34;5121771;27;45436;-82
2022/01/30 05:55:22;;;;;;;;;4.33;2.00;;;;;11.48;65.33;102936.78;5088126;27;45223;-80
2022/01/30 05:57:47;;;;;;;;;4.00;2.33;;;;;11.46;65.37;102933.19;5105106;27;45303;-82
2022/01/30 06:00:14;;;;;;;;;4.67;2.33;;;;;11.46;65.94;102937.59;5087853;27;47517;-83
2022/01/30 06:02:43;;;;;;;;;8.00;1.33;;;;;11.38;65.56;102937.25;5104305;27;45395;-81
2022/01/30 06:05:09;;;;;;;;;8.33;1.67;;;;;11.34;65.40;102945.00;5084631;27;45453;-81
2022/01/30 06:07:38;;;;;;;;;9.33;2.00;;;;;11.39;65.70;102949.63;5067568;27;45462;-81
2022/01/30 06:10:03;;;;;;;;;8.00;1.00;;;;;11.30;65.37;102941.34;5091278;27;47518;-82
2022/01/30 06:12:29;;;;;;;;;3.00;1.00;;;;;11.38;65.38;102958.41;5084146;27;45980;-82
2022/01/30 06:14:55;;;;;;;;;8.67;2.00;;;;;11.33;65.17;102949.38;5067548;27;55061;-81
2022/01/30 06:17:21;;;;;;;;;4.00;1.00;;;;;11.30;64.86;102959.84;5092403;27;45406;-81
2022/01/30 06:19:46;;;;;;;;;2.00;2.00;;;;;11.29;64.54;102965.97;5083776;27;48370;-80
2022/01/30 06:22:11;;;;;;;;;6.33;2.00;;;;;11.23;64.79;102958.66;5083637;27;52040;-83
2022/01/30 06:24:37;;;;;;;;;3.00;2.33;;;;;11.17;64.70;102965.44;5101295;27;54876;-82
2022/01/30 06:27:02;;;;;;;;;3.00;1.67;;;;;11.20;64.49;102961.19;5087475;27;45469;-81
2022/01/30 06:29:28;;;;;;;;;7.00;1.33;;;;;11.14;64.33;102968.88;5121275;27;46673;-80
2022/01/30 06:31:53;;;;;;;;;7.00;2.00;;;;;11.12;64.73;102967.00;5104225;27;45488;-80
2022/01/30 06:34:19;;;;;;;;;2.00;2.00;;;;;11.17;64.23;102981.31;5080253;27;54531;-81
2022/01/30 06:36:45;;;;;;;;;7.67;3.00;;;;;11.09;64.16;102962.50;5084441;27;45197;-81
2022/01/30 06:39:11;;;;;;;;;8.00;1.33;;;;;11.09;64.15;102967.78;5083586;27;45802;-80
2022/01/30 06:41:36;;;;;;;;;6.33;2.00;;;;;11.05;63.84;102967.56;5083954;27;45962;-82
2022/01/30 06:44:01;;;;;;;;;7.00;2.00;;;;;10.98;64.00;102969.97;5093435;27;53655;-81
2022/01/30 06:46:27;;;;;;;;;1.67;1.67;;;;;10.93;64.26;102965.31;5073513;27;45518;-81
2022/01/30 06:48:52;;;;;;;;;3.00;2.00;;;;;10.88;63.63;102967.75;5083638;27;46419;-82
2022/01/30 06:51:18;;;;;;;;;0.00;0.00;;;;;10.82;63.96;102963.94;5083142;27;57461;-81
2022/01/30 06:53:43;;;;;;;;;3.67;2.33;;;;;10.73;64.22;102965.31;5083318;27;49100;-80
2022/01/30 06:56:08;;;;;;;;;7.67;2.00;;;;;10.73;63.72;102982.91;5082804;27;56496;-81
2022/01/30 06:58:34;;;;;;;;;3.67;1.00;;;;;10.66;64.02;102975.56;5091678;27;48093;-82
2022/01/30 07:00:59;;;;;;;;;6.33;2.33;;;;;10.56;64.24;102971.59;5103540;27;45457;-81
2022/01/30 07:03:25;;;;;;;;;7.67;2.00;;;;;10.63;64.42;102986.88;5101891;27;52670;-82
2022/01/30 07:05:50;;;;;;;;;3.00;1.33;;;;;10.55;64.01;102972.44;5089052;27;56015;-81
2022/01/30 07:08:15;;;;;;;;;2.00;2.00;;;;;10.49;64.21;102981.00;5076948;27;47418;-80
2022/01/30 07:10:41;;;;;;;;;6.67;3.00;;;;;10.45;64.53;102986.94;5099816;27;57967;-81
2022/01/30 07:13:08;;;;;;;;;3.67;2.67;;;;;10.38;64.44;102978.66;5084320;27;45353;-82
2022/01/30 07:15:34;;;;;;;;;2.00;2.00;;;;;10.30;64.28;102985.34;5095126;27;45261;-80
2022/01/30 07:17:59;;;;;;;;;4.00;2.33;;;;;10.28;64.39;102990.56;5086787;27;46368;-82
2022/01/30 07:20:25;;;;;;;;;1.67;1.67;;;;;10.17;64.51;102987.38;5103185;27;53381;-82
2022/01/30 07:22:50;;;;;;;;;2.67;2.00;;;;;10.23;64.64;103002.59;5099340;27;54789;-81
2022/01/30 07:25:15;;;;;;;;;5.33;2.67;;;;;10.12;64.63;102993.25;5086167;27;49848;-80
2022/01/30 07:27:42;;;;;;;;;6.00;3.67;;;;;10.06;64.55;102992.97;5085191;27;60366;-81
2022/01/30 07:30:08;;;;;;;;;5.33;2.67;;;;;10.07;64.39;102998.34;5103724;27;45297;-81
2022/01/30 07:32:33;;;;;;;;;6.33;2.00;;;;;10.06;64.82;103011.44;5103558;27;45483;-79
2022/01/30 07:34:59;;;;;;;;;7.00;3.00;;;;;10.02;65.04;103012.13;5107700;27;51975;-82
2022/01/30 07:37:24;;;;;;;;;2.00;2.00;;;;;9.93;64.60;103008.22;5082568;27;47231;-80
2022/01/30 07:39:49;;;;;;;;;6.33;1.67;;;;;9.98;64.80;103025.16;5082684;27;45449;-82
2022/01/30 07:42:15;;;;;;;;;3.67;2.00;;;;;9.92;64.84;103013.44;5106921;27;45717;-80
2022/01/30 07:44:40;;;;;;;;;8.33;1.67;;;;;9.96;65.16;103018.03;5098378;27;45547;-81
2022/01/30 07:47:06;;;;;;;;;8.67;2.00;;;;;10.04;65.00;103039.50;5080643;27;58079;-82
2022/01/30 07:49:31;;;;;;;;;5.00;2.00;;;;;10.04;64.92;103034.22;5065559;27;45441;-82
2022/01/30 07:51:57;;;;;;;;;6.67;3.00;;;;;10.05;64.74;103034.28;5082698;27;45370;-85
2022/01/30 07:54:22;;;;;;;;;6.00;3.00;;;;;10.09;64.77;103032.72;5082907;27;45610;-81
2022/01/30 07:56:48;;;;;;;;;4.00;1.00;;;;;10.09;64.77;103038.00;5091709;27;61327;-80
2022/01/30 07:59:13;;;;;;;;;5.33;2.33;;;;;10.05;64.32;103038.66;5102414;27;57428;-83
2022/01/30 08:01:38;;;;;;;;;6.33;2.00;;;;;10.08;64.89;103050.28;5102848;27;46367;-80
2022/01/30 08:04:06;;;;;;;;;8.00;2.00;;;;;10.09;64.77;103045.91;5120026;27;45552;-81
2022/01/30 08:06:32;;;;;;;;;9.00;1.67;;;;;10.06;64.56;103036.09;5086363;27;47718;-80
2022/01/30 08:08:58;;;;;;;;;3.00;2.00;;;;;10.05;64.11;103036.03;5091082;27;45362;-80
2022/01/30 08:11:23;;;;;;;;;6.33;2.33;;;;;10.12;64.58;103043.41;5116572;27;53018;-78
2022/01/30 08:13:49;;;;;;;;;8.00;3.00;;;;;10.25;64.29;103059.03;5097643;27;45476;-79
2022/01/30 08:16:14;;;;;;;;;5.33;2.00;;;;;10.25;64.24;103052.88;5089808;27;62626;-83
2022/01/30 08:18:40;;;;;;;;;4.67;3.67;;;;;10.25;63.95;103043.19;5081640;27;45630;-82
2022/01/30 08:21:05;;;;;;;;;5.67;2.00;;;;;10.27;64.43;103054.72;5082010;27;45665;-84
2022/01/30 08:23:33;;;;;;;;;10.67;2.67;;;;;10.25;64.22;103052.88;5081832;27;50347;-84
2022/01/30 08:25:58;;;;;;;;;8.67;2.67;;;;;9.88;61.80;102998.25;5064954;27;48647;-75
2022/01/30 08:28:24;;;;;;;;;2.00;2.00;;;;;9.96;62.11;103053.25;5121104;27;45337;-78
2022/01/30 08:30:51;;;;;;;;;9.67;2.00;;;;;9.75;62.81;103053.88;5129880;27;52111;-75
2022/01/30 08:33:16;;;;;;;;;5.33;2.00;;;;;9.57;62.91;103053.88;5098119;27;45241;-77
2022/01/30 08:35:41;;;;;;;;;6.00;2.00;;;;;9.30;63.45;103041.09;5107450;27;46893;-75
2022/01/30 08:38:07;;;;;;;;;8.67;3.00;;;;;9.25;64.01;103047.84;5109314;27;45492;-75
2022/01/30 08:40:32;;;;;;;;;8.67;4.00;;;;;9.24;64.70;103046.03;5131030;27;45898;-75
2022/01/30 08:42:58;;;;;;;;;2.67;1.67;;;;;9.27;64.79;103045.28;5111780;27;52698;-76
2022/01/30 08:45:23;;;;;;;;;7.25;3.25;;;;;9.31;64.73;103045.53;5132538;27;45995;-75
2022/01/30 08:47:49;;;;;;;;;2.33;1.67;;;;;9.35;64.35;103054.50;5113874;27;45656;-77
2022/01/30 08:50:15;;;;;;;;;9.67;3.00;;;;;9.27;64.95;103022.50;5114081;27;45620;-74
2022/01/30 08:52:41;;;;;;;;;4.00;3.00;;;;;9.36;64.82;103030.84;5132249;27;45552;-74
2022/01/30 08:55:07;;;;;;;;;8.00;3.00;;;;;9.35;64.77;103047.50;5113845;27;46395;-73
2022/01/30 08:57:33;;;;;;;;;6.67;2.67;;;;;9.42;64.05;103052.25;5102740;27;45486;-74
2022/01/30 08:59:58;;;;;;;;;3.67;2.00;;;;;9.41;64.61;103063.63;5131789;27;45788;-80
2022/01/30 09:02:25;;;;;;;;;10.33;2.67;;;;;9.44;64.39;103053.25;5080559;27;45869;-80
2022/01/30 09:04:50;;;;;;;;;8.33;1.00;;;;;9.41;64.69;103053.09;5084972;27;46494;-81
2022/01/30 09:07:16;;;;;;;;;8.33;2.00;;;;;9.55;64.54;103050.25;5098474;27;45624;-79
2022/01/30 09:09:42;;;;;;;;;4.67;2.33;;;;;9.59;64.48;103061.06;5068909;27;45518;-79
2022/01/30 09:12:07;;;;;;;;;3.67;2.67;;;;;9.58;64.51;103045.13;5094556;27;45463;-79
2022/01/30 09:14:33;;;;;;;;;7.00;3.00;;;;;9.70;64.29;103061.59;5084241;27;48450;-80
2022/01/30 09:16:58;;;;;;;;;7.00;2.67;;;;;9.74;64.40;103049.44;5084488;27;45476;-80
2022/01/30 09:19:24;;;;;;;;;6.00;2.67;;;;;9.75;64.23;103049.53;5120465;27;45341;-80
2022/01/30 09:21:51;;;;;;;;;14.67;8.67;;;;;9.80;64.56;103050.69;5067897;27;45299;-78
2022/01/30 09:24:16;;;;;;;;;3.33;3.33;;;;;9.83;64.43;103042.88;5085072;27;46164;-79
2022/01/30 09:26:42;;;;;;;;;8.00;3.67;;;;;9.92;64.33;103061.81;5085037;27;45465;-79
2022/01/30 09:29:08;;;;;;;;;3.00;2.00;;;;;9.87;64.30;103055.41;5084946;27;45522;-80
2022/01/30 09:31:33;;;;;;;;;7.00;1.00;;;;;9.97;63.96;103060.31;5203840;22;53710;-79
2022/01/30 09:33:58;;;;;;;;;8.00;1.67;;;;;9.96;63.98;103058.50;5065392;27;57075;-78
2022/01/30 09:36:24;;;;;;;;;6.33;3.00;;;;;10.04;63.85;103061.50;5042729;28;58316;-79
2022/01/30 09:38:50;;;;;;;;;6.00;1.33;;;;;10.08;63.62;103062.59;5037555;28;45460;-79
2022/01/30 09:41:15;;;;;;;;;6.33;2.67;;;;;10.10;63.57;103060.91;5077676;28;45318;-80
2022/01/30 09:43:41;;;;;;;;;9.00;2.00;;;;;10.17;63.89;103069.22;5049688;28;60400;-78
2022/01/30 09:46:06;;;;;;;;;4.00;2.33;;;;;10.18;63.34;103062.19;5053660;28;57997;-79
2022/01/30 09:48:36;;;;;;;;;4.67;2.00;;;;;10.23;63.81;103074.81;5041149;28;45806;-79
2022/01/30 09:51:07;;;;;;;;;3.33;2.00;;;;;10.26;62.91;103076.69;5077168;28;45461;-80
2022/01/30 09:53:33;;;;;;;;;5.67;3.00;;;;;10.21;62.66;103059.69;5064384;28;45555;-79
2022/01/30 09:55:58;;;;;;;;;6.67;2.00;;;;;10.31;62.65;103069.00;5057540;28;45906;-79
2022/01/30 09:58:23;;;;;;;;;4.00;4.00;;;;;10.30;62.96;103054.88;5071098;28;45296;-80
2022/01/30 10:00:49;;;;;;;;;5.33;2.00;;;;;10.39;62.80;103065.91;5041405;28;45530;-80
2022/01/30 10:03:22;;;;;;;;;6.33;2.00;;;;;10.35;62.74;103056.00;5057126;28;48449;-79
2022/01/30 10:06:11;;;;;;;;;6.67;3.00;;;;;10.41;62.58;103065.97;5030012;28;45459;-79
2022/01/30 10:08:42;;;;;;;;;6.67;4.00;;;;;10.49;62.23;103078.72;5057372;28;45237;-79
2022/01/30 10:11:27;;;;;;;;;3.67;3.67;;;;;10.51;62.50;103069.94;5050867;28;45502;-79
2022/01/30 10:14:03;;;;;;;;;3.00;3.00;;;;;10.53;62.33;103068.28;5056611;28;45946;-80
2022/01/30 10:16:28;;;;;;;;;8.00;3.33;;;;;10.53;62.46;103070.91;5094423;27;45498;-79
2022/01/30 10:18:53;;;;;;;;;5.33;2.00;;;;;10.62;62.14;103080.19;5077260;28;48168;-78
2022/01/30 10:21:19;;;;;;;;;9.00;4.00;;;;;10.59;61.90;103066.81;5076971;28;51955;-80
2022/01/30 10:23:45;;;;;;;;;13.00;5.67;;;;;10.63;61.92;103068.78;5077439;28;46780;-78
2022/01/30 10:26:12;;;;;;;;;9.00;7.00;;;;;10.59;61.73;103064.19;5077046;28;53422;-79
2022/01/30 10:28:38;;;;;;;;;7.33;5.33;;;;;10.69;61.82;103071.69;5076764;27;45156;-79
2022/01/30 10:31:05;;;;;;;;;8.00;4.00;;;;;10.70;61.60;103065.56;5073313;28;45420;-79
2022/01/30 10:33:51;;;;;;;;;10.67;6.33;;;;;10.75;61.27;103068.44;5061451;28;48747;-79
2022/01/30 10:36:24;;;;;;;;;5.67;4.00;;;;;10.75;61.72;103064.03;5064791;28;45373;-79
2022/01/30 10:38:59;;;;;;;;;7.67;3.67;;;;;10.83;61.51;103068.81;5058122;28;45353;-79
2022/01/30 10:41:33;;;;;;;;;9.00;4.00;;;;;10.80;61.46;103058.97;5062182;28;45609;-79
2022/01/30 10:44:01;;;;;;;;;9.00;3.00;;;;;10.86;61.17;103061.91;5057763;28;45785;-79
2022/01/30 10:46:28;;;;;;;;;7.00;5.00;;;;;10.90;60.83;103066.50;5042915;28;45424;-79
2022/01/30 10:48:56;;;;;;;;;5.33;4.00;;;;;10.90;60.68;103041.81;5053048;28;45376;-80
2022/01/30 10:51:22;;;;;;;;;7.67;3.00;;;;;10.96;60.37;103048.25;5065349;28;45444;-80
2022/01/30 10:53:49;;;;;;;;;7.00;4.00;;;;;11.00;61.00;103052.84;5058498;28;62015;-80
2022/01/30 10:56:28;;;;;;;;;6.33;5.00;;;;;11.06;60.66;103051.31;5052186;28;46403;-79
2022/01/30 10:59:20;;;;;;;;;7.67;3.00;;;;;11.14;60.66;103065.81;5076713;28;45332;-79
2022/01/30 11:01:46;;;;;;;;;7.67;3.33;;;;;11.12;60.45;103051.59;5059259;28;45288;-80
2022/01/30 11:04:22;;;;;;;;;4.33;3.00;;;;;11.24;60.53;103063.63;5076775;28;46808;-80
2022/01/30 11:06:47;;;;;;;;;10.33;2.33;;;;;11.27;60.18;103061.09;5076549;28;45279;-79
2022/01/30 11:09:14;;;;;;;;;7.67;4.67;;;;;11.33;60.03;103057.81;5076730;28;45585;-79
2022/01/30 11:11:45;;;;;;;;;11.00;3.00;;;;;11.35;59.80;103042.03;5042919;28;45569;-80
2022/01/30 11:19:42;;;;;;;;;8.00;4.00;;;;;11.50;59.67;103048.91;4993004;28;45531;-79
2022/01/30 11:22:18;;;;;;;;;7.67;3.00;;;;;11.55;59.37;103043.78;4982691;28;45319;-79
2022/01/30 11:24:48;;;;;;;;;9.00;4.00;;;;;11.64;59.22;103040.63;5026265;28;48534;-80
2022/01/30 11:27:17;;;;;;;;;5.67;3.00;;;;;11.70;59.71;103036.47;5093404;27;46507;-80
2022/01/30 11:29:43;;;;;;;;;8.00;3.00;;;;;11.82;59.45;103036.13;5052743;28;45257;-79
2022/01/30 11:32:08;;;;;;;;;7.00;4.00;;;;;11.92;59.27;103024.16;5044352;28;45888;-79
2022/01/30 11:34:35;;;;;;;;;9.67;4.67;;;;;12.07;58.97;103025.69;5059129;28;52815;-78
2022/01/30 11:37:01;;;;;;;;;10.00;3.00;;;;;12.13;58.33;103011.78;5045202;28;46543;-79
2022/01/30 11:39:26;;;;;;;;;8.00;4.00;;;;;12.28;58.28;103008.84;5040840;28;45247;-79
2022/01/30 11:42:06;;;;;;;;;6.00;5.00;;;;;12.41;58.57;103012.84;5053546;28;45351;-79
2022/01/30 11:44:31;;;;;;;;;9.00;6.00;;;;;12.47;58.13;103003.41;5036638;28;48373;-79
2022/01/30 11:46:57;;;;;;;;;6.00;5.00;;;;;12.54;55.25;103001.91;5058321;28;46209;-80
2022/01/30 11:49:24;;;;;;;;;9.33;5.00;;;;;12.52;56.39;102983.28;5057183;28;45429;-80
2022/01/30 11:51:54;;;;;;;;;9.33;5.00;;;;;12.59;57.13;102984.41;5054614;28;45423;-79
2022/01/30 11:54:40;;;;;;;;;9.33;5.00;;;;;12.73;56.77;103001.75;5058909;28;48649;-79
2022/01/30 11:57:25;;;;;;;;;10.67;6.00;;;;;12.80;57.01;102987.84;5058907;28;45307;-80
2022/01/30 11:59:52;;;;;;;;;5.00;5.00;;;;;12.84;55.70;102991.53;5062824;28;45292;-79
2022/01/30 12:02:27;;;;;;;;;11.33;5.33;;;;;12.89;56.20;102991.66;5039220;28;45649;-79
2022/01/30 12:04:54;;;;;;;;;5.00;4.00;;;;;12.88;56.35;102977.50;5061093;28;45771;-78
2022/01/30 12:07:34;;;;;;;;;13.00;5.67;;;;;12.82;55.84;102983.50;5075848;28;45276;-79
2022/01/30 12:10:15;;;;;;;;;11.00;6.00;;;;;12.73;56.26;102982.25;5071697;28;45434;-79
2022/01/30 12:12:53;;;;;;;;;5.00;5.00;;;;;12.64;56.39;102984.59;5066985;28;45203;-80
2022/01/30 12:15:44;;;;;;;;;13.33;5.00;;;;;12.53;56.18;102981.53;5058307;28;47741;-78
2022/01/30 12:18:10;;;;;;;;;13.00;6.67;;;;;12.47;55.90;102976.03;5059264;28;45300;-78
2022/01/30 12:21:00;;;;;;;;;12.33;8.00;;;;;12.45;55.78;102964.44;5076371;27;45391;-79
2022/01/30 12:23:26;;;;;;;;;7.33;7.33;;;;;12.40;56.30;102961.63;5076908;28;45567;-77
2022/01/30 12:25:53;;;;;;;;;6.00;6.00;;;;;12.30;55.31;102952.44;5051919;28;46100;-79